Airfield :
LOGIN :

Register | Disclaimer

   EN    FR    IT 

 










Legend :    VFR   Marginal VFR   IFR   Intensive IFR   Very Intensive IFR
Visi :
Ceiling :
>= 8 km
>= 3000ft
5 to 8 km
1000 to 3000 ft
1500m to 5 km
500 to 1000 ft
800 to 1500m
200 to 500 ft
< 800m
< 200 ft
Symbols :   Thunderstorms  Fog  Heavy snow  Heavy precipitations  Wind > 20 kt
SIGMETs :     Misc.  Thunderstorms  Icing  Turbulence  Mountain Waves  Volcanic Ashes






- Airport Elevation : 121 ft
- IATA code : HUY


EGNJ - Humberside

CURRENT METAR :
  • 280750Z 31012KT 9999 FEW030 M00/M03 Q1006

EXPIRED METARs :
  • 280720Z AUTO 31012KT 9999 NCD M00/M03 Q1006
  • 280650Z AUTO 31012KT 9999 NCD M00/M03 Q1005
  • 280620Z AUTO 31011KT 9999 FEW049/// M00/M03 Q1005
  • 280550Z AUTO 31012KT 9999 FEW048/// 00/M02 Q1005
  • 280520Z AUTO 31011KT 9999 FEW039/// 00/M02 Q1005

TAF TAF EGNJ
Valid from the 28 at 06:00 until the 28 at 15:00 UTC


280459Z 2806/2815 31010KT 9999 FEW030
PROB30
TEMPO 2806/2813 3000 SHRASN BKN007
ATIS : +44 1652 682 020



MET'MAP, your aeronautical weather chart ! - Copyright ORBIFLY December 2007 - Disclaimer

ORBIFLY MET'MAP TEAM :

Programming & Development : Alexandra Zaïnal
Concept & original design : Baudouin d'Aumeries
Assistance for programming : Marc-Olivier Méhu
Technical & hardware support : Manuel Goepfert

Contact : metmap@orbifly.com




SOURCES & CREDITS :

   NOAA